CheckWX is a tool to help pilots better visualize weather data.  It is not intended as a substitute for an official pre-flight weather briefing.

03:43:52 UTC

KCNI METAR
Cherokee County Airport
Canton, Georgia, USA
Current

9 mins ago

KCNI 270335Z AUTO 00000KT 10SM CLR 25/14 A3012 RMK AO2
Observed
May-27 @ 03:35 UTC
Visibility
10 SM
Flight Rules
VFR
Cloud Levels
  • Clear skies
Temperature
25°C / 77°F
Dewpoint
14°C / 57°F
Humidity
51%
Altimeter
30.12" Hg
Pressure
1020.02 hPa
Previous

29 mins ago

KCNI 270315Z AUTO 00000KT 10SM CLR 26/14 A3013 RMK AO2
Observed
May-27 @ 03:15 UTC
Visibility
10 SM
Flight Rules
VFR
Cloud Levels
  • Clear skies
Temperature
26°C / 79°F
Dewpoint
14°C / 57°F
Humidity
48%
Altimeter
30.13" Hg
Pressure
1020.32 hPa
Previous

49 mins ago

KCNI 270255Z AUTO 00000KT 10SM CLR 25/15 A3013 RMK AO2
Observed
May-27 @ 02:55 UTC
Visibility
10 SM
Flight Rules
VFR
Cloud Levels
  • Clear skies
Temperature
25°C / 77°F
Dewpoint
15°C / 59°F
Humidity
54%
Altimeter
30.13" Hg
Pressure
1020.32 hPa